sensor_id;sensor_type;location;lat;lon;timestamp;temperature;humidity
43808;DHT22;29438;50.664;10.098;2023-01-04T00:01:43;4.70;88.40
43808;DHT22;29438;50.664;10.098;2023-01-04T00:04:09;4.80;88.50
43808;DHT22;29438;50.664;10.098;2023-01-04T00:06:35;4.90;88.10
43808;DHT22;29438;50.664;10.098;2023-01-04T00:09:00;4.80;88.20
43808;DHT22;29438;50.664;10.098;2023-01-04T00:11:26;4.80;88.20
43808;DHT22;29438;50.664;10.098;2023-01-04T00:13:55;4.80;88.20
43808;DHT22;29438;50.664;10.098;2023-01-04T00:16:22;4.80;88.30
43808;DHT22;29438;50.664;10.098;2023-01-04T00:18:49;4.90;88.30
43808;DHT22;29438;50.664;10.098;2023-01-04T00:21:26;4.90;88.10
43808;DHT22;29438;50.664;10.098;2023-01-04T00:23:54;5.00;88.00
43808;DHT22;29438;50.664;10.098;2023-01-04T00:26:25;4.90;87.90
43808;DHT22;29438;50.664;10.098;2023-01-04T00:28:59;4.90;88.20
43808;DHT22;29438;50.664;10.098;2023-01-04T00:31:26;4.90;88.20
43808;DHT22;29438;50.664;10.098;2023-01-04T00:33:53;4.80;88.00
43808;DHT22;29438;50.664;10.098;2023-01-04T00:36:18;4.80;88.30
43808;DHT22;29438;50.664;10.098;2023-01-04T00:38:44;4.80;88.20
43808;DHT22;29438;50.664;10.098;2023-01-04T00:41:11;4.80;88.20
43808;DHT22;29438;50.664;10.098;2023-01-04T00:43:36;4.80;87.90
43808;DHT22;29438;50.664;10.098;2023-01-04T00:46:03;4.70;87.80
43808;DHT22;29438;50.664;10.098;2023-01-04T00:48:29;4.80;87.80
43808;DHT22;29438;50.664;10.098;2023-01-04T00:50:55;4.80;87.70
43808;DHT22;29438;50.664;10.098;2023-01-04T00:53:21;4.70;87.80
43808;DHT22;29438;50.664;10.098;2023-01-04T00:55:47;4.60;88.10
43808;DHT22;29438;50.664;10.098;2023-01-04T00:58:12;4.70;87.90
43808;DHT22;29438;50.664;10.098;2023-01-04T01:00:38;4.70;87.80
43808;DHT22;29438;50.664;10.098;2023-01-04T01:03:04;4.80;87.50
43808;DHT22;29438;50.664;10.098;2023-01-04T01:05:32;4.70;87.50
43808;DHT22;29438;50.664;10.098;2023-01-04T01:07:59;4.50;87.50
43808;DHT22;29438;50.664;10.098;2023-01-04T01:10:44;4.40;87.90
43808;DHT22;29438;50.664;10.098;2023-01-04T01:13:10;4.50;88.00
43808;DHT22;29438;50.664;10.098;2023-01-04T01:15:35;4.40;87.80
43808;DHT22;29438;50.664;10.098;2023-01-04T01:18:01;4.40;88.00
43808;DHT22;29438;50.664;10.098;2023-01-04T01:20:26;4.60;87.80
43808;DHT22;29438;50.664;10.098;2023-01-04T01:22:51;4.60;87.50
43808;DHT22;29438;50.664;10.098;2023-01-04T01:25:17;4.60;87.70
43808;DHT22;29438;50.664;10.098;2023-01-04T01:27:42;4.50;87.70
43808;DHT22;29438;50.664;10.098;2023-01-04T01:30:08;4.40;88.00
43808;DHT22;29438;50.664;10.098;2023-01-04T01:32:34;4.40;88.30
43808;DHT22;29438;50.664;10.098;2023-01-04T01:34:59;4.60;88.30
43808;DHT22;29438;50.664;10.098;2023-01-04T01:37:25;4.70;87.70
43808;DHT22;29438;50.664;10.098;2023-01-04T01:39:50;4.70;87.60
43808;DHT22;29438;50.664;10.098;2023-01-04T01:42:19;4.70;87.70
43808;DHT22;29438;50.664;10.098;2023-01-04T01:45:00;4.70;87.60
43808;DHT22;29438;50.664;10.098;2023-01-04T01:47:42;4.80;87.50
43808;DHT22;29438;50.664;10.098;2023-01-04T01:50:22;4.70;87.50
43808;DHT22;29438;50.664;10.098;2023-01-04T01:52:49;4.70;87.60
43808;DHT22;29438;50.664;10.098;2023-01-04T01:55:16;4.70;87.70
43808;DHT22;29438;50.664;10.098;2023-01-04T01:57:42;4.60;87.60
43808;DHT22;29438;50.664;10.098;2023-01-04T02:00:11;4.50;88.10
43808;DHT22;29438;50.664;10.098;2023-01-04T02:02:48;4.50;88.40
43808;DHT22;29438;50.664;10.098;2023-01-04T02:05:18;4.50;88.60
43808;DHT22;29438;50.664;10.098;2023-01-04T02:07:44;4.70;88.40
43808;DHT22;29438;50.664;10.098;2023-01-04T02:10:11;4.80;88.10
43808;DHT22;29438;50.664;10.098;2023-01-04T02:12:36;4.80;87.80
43808;DHT22;29438;50.664;10.098;2023-01-04T02:15:02;4.70;88.00
43808;DHT22;29438;50.664;10.098;2023-01-04T02:17:55;4.80;87.70
43808;DHT22;29438;50.664;10.098;2023-01-04T02:20:33;4.80;87.60
43808;DHT22;29438;50.664;10.098;2023-01-04T02:23:27;4.80;87.80
43808;DHT22;29438;50.664;10.098;2023-01-04T02:33:46;4.90;87.30
43808;DHT22;29438;50.664;10.098;2023-01-04T02:49:32;4.90;86.60
43808;DHT22;29438;50.664;10.098;2023-01-04T02:52:17;4.90;86.30
43808;DHT22;29438;50.664;10.098;2023-01-04T02:54:43;4.80;86.30
43808;DHT22;29438;50.664;10.098;2023-01-04T02:57:14;4.80;86.50
43808;DHT22;29438;50.664;10.098;2023-01-04T03:00:09;4.80;86.30
43808;DHT22;29438;50.664;10.098;2023-01-04T03:09:13;4.70;85.80
43808;DHT22;29438;50.664;10.098;2023-01-04T03:11:46;4.90;84.90
43808;DHT22;29438;50.664;10.098;2023-01-04T03:14:37;4.90;84.40
43808;DHT22;29438;50.664;10.098;2023-01-04T03:17:10;4.80;84.30
43808;DHT22;29438;50.664;10.098;2023-01-04T03:19:38;5.00;83.70
43808;DHT22;29438;50.664;10.098;2023-01-04T03:22:33;5.00;82.90
43808;DHT22;29438;50.664;10.098;2023-01-04T03:25:28;5.20;82.20
43808;DHT22;29438;50.664;10.098;2023-01-04T03:28:14;5.30;81.40
43808;DHT22;29438;50.664;10.098;2023-01-04T03:31:26;5.30;81.40
43808;DHT22;29438;50.664;10.098;2023-01-04T03:34:10;5.40;80.90
43808;DHT22;29438;50.664;10.098;2023-01-04T03:39:33;5.50;80.10
43808;DHT22;29438;50.664;10.098;2023-01-04T03:42:24;5.50;80.00
43808;DHT22;29438;50.664;10.098;2023-01-04T03:45:15;5.60;79.50
43808;DHT22;29438;50.664;10.098;2023-01-04T03:48:14;5.60;79.70
43808;DHT22;29438;50.664;10.098;2023-01-04T03:51:27;5.60;79.30
43808;DHT22;29438;50.664;10.098;2023-01-04T03:54:05;5.70;78.80
43808;DHT22;29438;50.664;10.098;2023-01-04T03:56:35;5.80;78.50
43808;DHT22;29438;50.664;10.098;2023-01-04T03:59:01;5.80;78.50
43808;DHT22;29438;50.664;10.098;2023-01-04T04:01:27;5.80;78.50
43808;DHT22;29438;50.664;10.098;2023-01-04T04:03:53;5.90;78.20
43808;DHT22;29438;50.664;10.098;2023-01-04T04:06:37;5.90;78.30
43808;DHT22;29438;50.664;10.098;2023-01-04T04:09:21;6.00;78.10
43808;DHT22;29438;50.664;10.098;2023-01-04T04:11:47;6.10;77.80
43808;DHT22;29438;50.664;10.098;2023-01-04T04:14:12;6.10;78.00
43808;DHT22;29438;50.664;10.098;2023-01-04T04:16:38;6.20;77.60
43808;DHT22;29438;50.664;10.098;2023-01-04T04:19:03;6.20;77.30
43808;DHT22;29438;50.664;10.098;2023-01-04T04:21:29;6.20;77.10
43808;DHT22;29438;50.664;10.098;2023-01-04T04:23:54;6.20;77.60
43808;DHT22;29438;50.664;10.098;2023-01-04T04:26:20;6.20;77.30
43808;DHT22;29438;50.664;10.098;2023-01-04T04:28:46;6.20;77.60
43808;DHT22;29438;50.664;10.098;2023-01-04T04:31:12;6.30;77.70
43808;DHT22;29438;50.664;10.098;2023-01-04T04:33:38;6.30;77.70
43808;DHT22;29438;50.664;10.098;2023-01-04T04:36:04;6.30;78.10
43808;DHT22;29438;50.664;10.098;2023-01-04T04:38:30;6.20;78.10
43808;DHT22;29438;50.664;10.098;2023-01-04T04:40:56;6.20;78.40
43808;DHT22;29438;50.664;10.098;2023-01-04T04:43:40;6.20;78.50
43808;DHT22;29438;50.664;10.098;2023-01-04T04:46:05;6.20;78.70
43808;DHT22;29438;50.664;10.098;2023-01-04T04:48:31;6.20;79.10
43808;DHT22;29438;50.664;10.098;2023-01-04T04:50:56;6.20;79.20
43808;DHT22;29438;50.664;10.098;2023-01-04T04:53:22;6.20;79.00
43808;DHT22;29438;50.664;10.098;2023-01-04T04:55:52;6.20;79.40
43808;DHT22;29438;50.664;10.098;2023-01-04T04:58:18;6.20;79.30
43808;DHT22;29438;50.664;10.098;2023-01-04T05:00:44;6.20;79.40
43808;DHT22;29438;50.664;10.098;2023-01-04T05:03:09;6.20;79.60
43808;DHT22;29438;50.664;10.098;2023-01-04T05:05:34;6.20;80.40
43808;DHT22;29438;50.664;10.098;2023-01-04T05:08:00;6.10;80.80
43808;DHT22;29438;50.664;10.098;2023-01-04T05:10:25;6.10;81.30
43808;DHT22;29438;50.664;10.098;2023-01-04T05:12:51;6.10;81.70
43808;DHT22;29438;50.664;10.098;2023-01-04T05:15:29;6.10;82.20
43808;DHT22;29438;50.664;10.098;2023-01-04T05:17:56;6.00;83.00
43808;DHT22;29438;50.664;10.098;2023-01-04T05:20:21;5.90;82.80
43808;DHT22;29438;50.664;10.098;2023-01-04T05:22:47;6.00;82.80
43808;DHT22;29438;50.664;10.098;2023-01-04T05:25:12;6.00;82.70
43808;DHT22;29438;50.664;10.098;2023-01-04T05:27:38;6.00;82.70
43808;DHT22;29438;50.664;10.098;2023-01-04T05:30:05;6.00;82.60
43808;DHT22;29438;50.664;10.098;2023-01-04T05:32:49;6.10;82.70
43808;DHT22;29438;50.664;10.098;2023-01-04T05:35:15;6.10;82.90
43808;DHT22;29438;50.664;10.098;2023-01-04T05:37:41;6.10;83.30
43808;DHT22;29438;50.664;10.098;2023-01-04T05:40:07;6.10;83.10
43808;DHT22;29438;50.664;10.098;2023-01-04T05:42:33;6.10;84.20
43808;DHT22;29438;50.664;10.098;2023-01-04T05:44:58;6.00;84.20
43808;DHT22;29438;50.664;10.098;2023-01-04T05:47:25;6.00;84.30
43808;DHT22;29438;50.664;10.098;2023-01-04T05:49:51;6.00;84.60
43808;DHT22;29438;50.664;10.098;2023-01-04T05:52:17;6.00;84.70
43808;DHT22;29438;50.664;10.098;2023-01-04T05:54:43;6.00;84.90
43808;DHT22;29438;50.664;10.098;2023-01-04T05:57:09;5.90;85.50
43808;DHT22;29438;50.664;10.098;2023-01-04T05:59:35;6.00;85.60
43808;DHT22;29438;50.664;10.098;2023-01-04T06:02:00;5.90;86.30
43808;DHT22;29438;50.664;10.098;2023-01-04T06:04:26;5.80;87.00
43808;DHT22;29438;50.664;10.098;2023-01-04T06:06:52;5.80;87.40
43808;DHT22;29438;50.664;10.098;2023-01-04T06:09:17;5.80;87.70
43808;DHT22;29438;50.664;10.098;2023-01-04T06:11:43;5.80;88.00
43808;DHT22;29438;50.664;10.098;2023-01-04T06:14:08;5.80;88.00
43808;DHT22;29438;50.664;10.098;2023-01-04T06:16:34;5.80;88.30
43808;DHT22;29438;50.664;10.098;2023-01-04T06:19:00;5.70;88.60
43808;DHT22;29438;50.664;10.098;2023-01-04T06:21:25;5.80;88.50
43808;DHT22;29438;50.664;10.098;2023-01-04T06:23:51;5.80;88.80
43808;DHT22;29438;50.664;10.098;2023-01-04T06:26:17;5.80;89.00
43808;DHT22;29438;50.664;10.098;2023-01-04T06:28:42;5.80;88.80
43808;DHT22;29438;50.664;10.098;2023-01-04T06:31:09;5.80;88.80
43808;DHT22;29438;50.664;10.098;2023-01-04T06:33:35;5.80;88.80
43808;DHT22;29438;50.664;10.098;2023-01-04T06:36:01;5.80;88.90
43808;DHT22;29438;50.664;10.098;2023-01-04T06:38:27;5.80;88.90
43808;DHT22;29438;50.664;10.098;2023-01-04T06:40:52;5.80;88.70
43808;DHT22;29438;50.664;10.098;2023-01-04T06:43:18;5.80;88.80
43808;DHT22;29438;50.664;10.098;2023-01-04T06:45:44;5.80;88.60
43808;DHT22;29438;50.664;10.098;2023-01-04T06:48:09;5.80;88.60
43808;DHT22;29438;50.664;10.098;2023-01-04T06:50:35;5.90;88.50
43808;DHT22;29438;50.664;10.098;2023-01-04T06:53:01;5.90;88.50
43808;DHT22;29438;50.664;10.098;2023-01-04T06:55:26;5.90;88.50
43808;DHT22;29438;50.664;10.098;2023-01-04T06:57:54;5.90;88.20
43808;DHT22;29438;50.664;10.098;2023-01-04T07:00:20;5.90;88.20
43808;DHT22;29438;50.664;10.098;2023-01-04T07:02:46;6.00;88.40
43808;DHT22;29438;50.664;10.098;2023-01-04T07:05:11;6.00;88.10
43808;DHT22;29438;50.664;10.098;2023-01-04T07:07:37;6.00;88.20
43808;DHT22;29438;50.664;10.098;2023-01-04T07:10:02;6.00;88.30
43808;DHT22;29438;50.664;10.098;2023-01-04T07:12:28;5.90;88.50
43808;DHT22;29438;50.664;10.098;2023-01-04T07:14:54;5.90;88.90
43808;DHT22;29438;50.664;10.098;2023-01-04T07:17:19;5.90;89.10
43808;DHT22;29438;50.664;10.098;2023-01-04T07:19:45;5.90;89.00
43808;DHT22;29438;50.664;10.098;2023-01-04T07:22:10;5.90;89.00
43808;DHT22;29438;50.664;10.098;2023-01-04T07:24:36;5.90;89.20
43808;DHT22;29438;50.664;10.098;2023-01-04T07:27:02;5.80;89.40
43808;DHT22;29438;50.664;10.098;2023-01-04T07:29:27;5.80;89.60
43808;DHT22;29438;50.664;10.098;2023-01-04T07:31:53;5.80;89.80
43808;DHT22;29438;50.664;10.098;2023-01-04T07:34:21;5.80;89.70
43808;DHT22;29438;50.664;10.098;2023-01-04T07:36:47;5.80;90.00
43808;DHT22;29438;50.664;10.098;2023-01-04T07:39:13;5.70;90.20
43808;DHT22;29438;50.664;10.098;2023-01-04T07:41:39;5.80;90.10
43808;DHT22;29438;50.664;10.098;2023-01-04T07:44:05;5.70;90.00
43808;DHT22;29438;50.664;10.098;2023-01-04T07:46:31;5.70;90.00
43808;DHT22;29438;50.664;10.098;2023-01-04T07:48:57;5.80;89.90
43808;DHT22;29438;50.664;10.098;2023-01-04T07:51:23;5.80;90.00
43808;DHT22;29438;50.664;10.098;2023-01-04T07:53:49;6.00;89.70
43808;DHT22;29438;50.664;10.098;2023-01-04T07:56:14;6.00;90.00
43808;DHT22;29438;50.664;10.098;2023-01-04T07:58:40;6.10;89.80
43808;DHT22;29438;50.664;10.098;2023-01-04T08:01:14;6.00;89.80
43808;DHT22;29438;50.664;10.098;2023-01-04T08:03:40;6.00;90.40
43808;DHT22;29438;50.664;10.098;2023-01-04T08:06:11;5.80;90.20
43808;DHT22;29438;50.664;10.098;2023-01-04T08:08:37;5.70;90.80
43808;DHT22;29438;50.664;10.098;2023-01-04T08:11:05;5.60;91.00
43808;DHT22;29438;50.664;10.098;2023-01-04T08:13:32;5.60;91.10
43808;DHT22;29438;50.664;10.098;2023-01-04T08:15:57;5.80;91.30
43808;DHT22;29438;50.664;10.098;2023-01-04T08:18:23;5.70;90.80
43808;DHT22;29438;50.664;10.098;2023-01-04T08:20:49;5.60;90.80
43808;DHT22;29438;50.664;10.098;2023-01-04T08:23:15;5.70;91.00
43808;DHT22;29438;50.664;10.098;2023-01-04T08:25:40;5.70;90.80
43808;DHT22;29438;50.664;10.098;2023-01-04T08:28:06;5.80;90.80
43808;DHT22;29438;50.664;10.098;2023-01-04T08:30:31;5.70;90.80
43808;DHT22;29438;50.664;10.098;2023-01-04T08:32:57;5.70;90.80
43808;DHT22;29438;50.664;10.098;2023-01-04T08:35:22;5.70;90.50
43808;DHT22;29438;50.664;10.098;2023-01-04T08:37:48;5.80;90.80
43808;DHT22;29438;50.664;10.098;2023-01-04T08:40:13;5.90;90.90
43808;DHT22;29438;50.664;10.098;2023-01-04T08:42:39;5.90;90.40
43808;DHT22;29438;50.664;10.098;2023-01-04T08:45:05;5.90;90.30
43808;DHT22;29438;50.664;10.098;2023-01-04T08:47:31;5.90;90.20
43808;DHT22;29438;50.664;10.098;2023-01-04T08:49:57;5.90;90.30
43808;DHT22;29438;50.664;10.098;2023-01-04T08:52:24;5.90;90.30
43808;DHT22;29438;50.664;10.098;2023-01-04T08:54:50;5.90;90.50
43808;DHT22;29438;50.664;10.098;2023-01-04T08:57:16;5.90;90.50
43808;DHT22;29438;50.664;10.098;2023-01-04T08:59:42;5.90;90.60
43808;DHT22;29438;50.664;10.098;2023-01-04T09:02:25;6.10;91.00
43808;DHT22;29438;50.664;10.098;2023-01-04T09:04:51;6.00;90.30
43808;DHT22;29438;50.664;10.098;2023-01-04T09:07:16;6.00;90.20
43808;DHT22;29438;50.664;10.098;2023-01-04T09:09:42;5.90;90.50
43808;DHT22;29438;50.664;10.098;2023-01-04T09:12:08;5.90;90.80
43808;DHT22;29438;50.664;10.098;2023-01-04T09:14:34;6.00;90.90
43808;DHT22;29438;50.664;10.098;2023-01-04T09:16:59;6.00;90.80
43808;DHT22;29438;50.664;10.098;2023-01-04T09:19:25;6.00;90.70
43808;DHT22;29438;50.664;10.098;2023-01-04T09:21:50;6.00;90.70
43808;DHT22;29438;50.664;10.098;2023-01-04T09:24:16;6.00;90.70
43808;DHT22;29438;50.664;10.098;2023-01-04T09:26:41;6.10;90.70
43808;DHT22;29438;50.664;10.098;2023-01-04T09:29:09;6.10;90.70
43808;DHT22;29438;50.664;10.098;2023-01-04T09:31:35;6.10;90.60
43808;DHT22;29438;50.664;10.098;2023-01-04T09:34:01;6.20;90.70
43808;DHT22;29438;50.664;10.098;2023-01-04T09:36:26;6.10;90.70
43808;DHT22;29438;50.664;10.098;2023-01-04T09:38:53;6.20;90.80
43808;DHT22;29438;50.664;10.098;2023-01-04T09:41:27;6.20;90.80
43808;DHT22;29438;50.664;10.098;2023-01-04T09:46:49;6.20;90.70
43808;DHT22;29438;50.664;10.098;2023-01-04T09:49:20;6.20;90.70
43808;DHT22;29438;50.664;10.098;2023-01-04T09:54:22;6.30;90.60
43808;DHT22;29438;50.664;10.098;2023-01-04T09:56:52;6.40;90.60
43808;DHT22;29438;50.664;10.098;2023-01-04T09:59:27;6.30;90.70
43808;DHT22;29438;50.664;10.098;2023-01-04T10:01:58;6.30;90.90
43808;DHT22;29438;50.664;10.098;2023-01-04T10:04:42;6.30;90.80
43808;DHT22;29438;50.664;10.098;2023-01-04T10:07:27;6.30;90.90
43808;DHT22;29438;50.664;10.098;2023-01-04T10:09:54;6.30;90.90
43808;DHT22;29438;50.664;10.098;2023-01-04T10:15:40;6.40;90.90
43808;DHT22;29438;50.664;10.098;2023-01-04T10:23:57;6.40;91.10
43808;DHT22;29438;50.664;10.098;2023-01-04T10:26:35;6.40;91.10
43808;DHT22;29438;50.664;10.098;2023-01-04T10:29:33;6.40;91.20
43808;DHT22;29438;50.664;10.098;2023-01-04T10:32:10;6.40;91.10
43808;DHT22;29438;50.664;10.098;2023-01-04T10:34:43;6.40;91.10
43808;DHT22;29438;50.664;10.098;2023-01-04T10:37:19;6.40;91.20
43808;DHT22;29438;50.664;10.098;2023-01-04T10:39:49;6.50;91.30
43808;DHT22;29438;50.664;10.098;2023-01-04T10:45:20;6.50;91.40
43808;DHT22;29438;50.664;10.098;2023-01-04T10:48:01;6.50;91.30
43808;DHT22;29438;50.664;10.098;2023-01-04T10:53:11;6.60;91.20
43808;DHT22;29438;50.664;10.098;2023-01-04T10:59:48;6.70;91.00
43808;DHT22;29438;50.664;10.098;2023-01-04T11:02:14;6.70;91.10
43808;DHT22;29438;50.664;10.098;2023-01-04T11:04:46;6.80;90.90
43808;DHT22;29438;50.664;10.098;2023-01-04T11:07:24;6.80;91.00
43808;DHT22;29438;50.664;10.098;2023-01-04T11:10:02;6.80;91.00
43808;DHT22;29438;50.664;10.098;2023-01-04T11:12:29;6.80;90.90
43808;DHT22;29438;50.664;10.098;2023-01-04T11:14:55;6.90;91.00
43808;DHT22;29438;50.664;10.098;2023-01-04T11:17:22;6.90;90.90
43808;DHT22;29438;50.664;10.098;2023-01-04T11:19:48;6.90;90.80
43808;DHT22;29438;50.664;10.098;2023-01-04T11:22:28;7.00;90.90
43808;DHT22;29438;50.664;10.098;2023-01-04T11:25:00;7.00;90.80
43808;DHT22;29438;50.664;10.098;2023-01-04T11:27:29;7.10;90.70
43808;DHT22;29438;50.664;10.098;2023-01-04T11:30:00;7.10;90.50
43808;DHT22;29438;50.664;10.098;2023-01-04T11:32:37;7.10;90.60
43808;DHT22;29438;50.664;10.098;2023-01-04T11:35:04;7.10;90.50
43808;DHT22;29438;50.664;10.098;2023-01-04T11:37:40;7.10;90.70
43808;DHT22;29438;50.664;10.098;2023-01-04T11:40:21;7.10;90.60
43808;DHT22;29438;50.664;10.098;2023-01-04T11:43:16;7.00;90.80
43808;DHT22;29438;50.664;10.098;2023-01-04T11:46:03;7.00;91.00
43808;DHT22;29438;50.664;10.098;2023-01-04T11:48:41;7.00;91.00
43808;DHT22;29438;50.664;10.098;2023-01-04T11:53:44;7.20;90.80
43808;DHT22;29438;50.664;10.098;2023-01-04T11:56:13;7.20;90.80
43808;DHT22;29438;50.664;10.098;2023-01-04T11:58:39;7.20;90.80
43808;DHT22;29438;50.664;10.098;2023-01-04T12:01:05;7.20;90.80
43808;DHT22;29438;50.664;10.098;2023-01-04T12:03:42;7.20;90.70
43808;DHT22;29438;50.664;10.098;2023-01-04T12:08:44;7.10;91.00
43808;DHT22;29438;50.664;10.098;2023-01-04T12:11:23;7.10;91.20
43808;DHT22;29438;50.664;10.098;2023-01-04T12:13:50;7.10;91.40
43808;DHT22;29438;50.664;10.098;2023-01-04T12:16:46;7.00;91.30
43808;DHT22;29438;50.664;10.098;2023-01-04T12:19:16;7.00;91.30
43808;DHT22;29438;50.664;10.098;2023-01-04T12:21:46;7.00;91.20
43808;DHT22;29438;50.664;10.098;2023-01-04T12:24:21;7.00;91.40
43808;DHT22;29438;50.664;10.098;2023-01-04T12:26:48;7.00;91.40
43808;DHT22;29438;50.664;10.098;2023-01-04T12:37:03;7.20;90.90
43808;DHT22;29438;50.664;10.098;2023-01-04T12:39:40;7.20;91.10
43808;DHT22;29438;50.664;10.098;2023-01-04T12:42:13;7.20;91.10
43808;DHT22;29438;50.664;10.098;2023-01-04T12:54:56;7.20;91.00
43808;DHT22;29438;50.664;10.098;2023-01-04T12:57:32;7.30;91.20
43808;DHT22;29438;50.664;10.098;2023-01-04T13:07:46;7.20;91.20
43808;DHT22;29438;50.664;10.098;2023-01-04T13:16:15;7.20;91.50
43808;DHT22;29438;50.664;10.098;2023-01-04T13:18:59;7.20;91.60
43808;DHT22;29438;50.664;10.098;2023-01-04T13:21:31;7.20;91.70
43808;DHT22;29438;50.664;10.098;2023-01-04T13:24:14;7.20;91.70
43808;DHT22;29438;50.664;10.098;2023-01-04T13:26:43;7.20;91.90
43808;DHT22;29438;50.664;10.098;2023-01-04T13:29:14;7.30;91.90
43808;DHT22;29438;50.664;10.098;2023-01-04T13:31:58;7.30;91.80
43808;DHT22;29438;50.664;10.098;2023-01-04T13:34:38;7.30;92.00
43808;DHT22;29438;50.664;10.098;2023-01-04T13:39:37;7.30;92.10
43808;DHT22;29438;50.664;10.098;2023-01-04T13:42:04;7.30;92.20
43808;DHT22;29438;50.664;10.098;2023-01-04T13:45:09;7.20;92.10
43808;DHT22;29438;50.664;10.098;2023-01-04T13:47:39;7.30;92.00
43808;DHT22;29438;50.664;10.098;2023-01-04T13:50:36;7.30;92.00
43808;DHT22;29438;50.664;10.098;2023-01-04T13:53:01;7.40;91.60
43808;DHT22;29438;50.664;10.098;2023-01-04T13:55:30;7.50;91.60
43808;DHT22;29438;50.664;10.098;2023-01-04T13:57:58;7.50;91.50
43808;DHT22;29438;50.664;10.098;2023-01-04T14:00:25;7.60;90.90
43808;DHT22;29438;50.664;10.098;2023-01-04T14:03:14;7.60;90.60
43808;DHT22;29438;50.664;10.098;2023-01-04T14:05:49;7.60;90.80
43808;DHT22;29438;50.664;10.098;2023-01-04T14:08:44;7.60;90.80
43808;DHT22;29438;50.664;10.098;2023-01-04T14:11:26;7.60;90.80
43808;DHT22;29438;50.664;10.098;2023-01-04T14:17:21;7.70;90.70
43808;DHT22;29438;50.664;10.098;2023-01-04T14:19:56;7.70;90.60
43808;DHT22;29438;50.664;10.098;2023-01-04T14:24:48;7.70;90.50
43808;DHT22;29438;50.664;10.098;2023-01-04T14:27:33;7.70;90.50
43808;DHT22;29438;50.664;10.098;2023-01-04T14:30:12;7.70;90.40
43808;DHT22;29438;50.664;10.098;2023-01-04T14:32:38;7.70;90.30
43808;DHT22;29438;50.664;10.098;2023-01-04T14:35:10;7.70;90.40
43808;DHT22;29438;50.664;10.098;2023-01-04T14:37:37;7.80;90.50
43808;DHT22;29438;50.664;10.098;2023-01-04T14:40:23;7.80;90.20
43808;DHT22;29438;50.664;10.098;2023-01-04T14:42:49;7.80;90.40
43808;DHT22;29438;50.664;10.098;2023-01-04T14:45:14;7.80;90.50
43808;DHT22;29438;50.664;10.098;2023-01-04T14:47:40;7.80;90.40
43808;DHT22;29438;50.664;10.098;2023-01-04T14:50:06;7.80;90.50
43808;DHT22;29438;50.664;10.098;2023-01-04T14:52:32;7.80;90.40
43808;DHT22;29438;50.664;10.098;2023-01-04T14:54:58;7.80;90.40
43808;DHT22;29438;50.664;10.098;2023-01-04T14:57:23;7.80;90.30
43808;DHT22;29438;50.664;10.098;2023-01-04T14:59:49;7.90;90.60
43808;DHT22;29438;50.664;10.098;2023-01-04T15:02:15;7.90;90.90
43808;DHT22;29438;50.664;10.098;2023-01-04T15:04:40;7.80;90.70
43808;DHT22;29438;50.664;10.098;2023-01-04T15:07:06;7.80;90.90
43808;DHT22;29438;50.664;10.098;2023-01-04T15:09:31;7.80;91.20
43808;DHT22;29438;50.664;10.098;2023-01-04T15:11:57;7.70;91.30
43808;DHT22;29438;50.664;10.098;2023-01-04T15:14:23;7.70;91.60
43808;DHT22;29438;50.664;10.098;2023-01-04T15:16:48;7.60;92.10
43808;DHT22;29438;50.664;10.098;2023-01-04T15:19:14;7.80;92.60
43808;DHT22;29438;50.664;10.098;2023-01-04T15:21:40;7.70;92.00
43808;DHT22;29438;50.664;10.098;2023-01-04T15:24:05;7.60;92.10
43808;DHT22;29438;50.664;10.098;2023-01-04T15:26:31;7.60;92.00
43808;DHT22;29438;50.664;10.098;2023-01-04T15:28:57;7.60;92.10
43808;DHT22;29438;50.664;10.098;2023-01-04T15:31:23;7.60;92.20
43808;DHT22;29438;50.664;10.098;2023-01-04T15:33:48;7.60;92.50
43808;DHT22;29438;50.664;10.098;2023-01-04T15:36:15;7.50;92.50
43808;DHT22;29438;50.664;10.098;2023-01-04T15:38:42;7.50;92.70
43808;DHT22;29438;50.664;10.098;2023-01-04T15:41:11;7.50;92.70
43808;DHT22;29438;50.664;10.098;2023-01-04T15:43:56;7.50;92.80
43808;DHT22;29438;50.664;10.098;2023-01-04T15:46:23;7.50;92.80
43808;DHT22;29438;50.664;10.098;2023-01-04T15:48:48;7.50;92.80
43808;DHT22;29438;50.664;10.098;2023-01-04T15:51:14;7.50;92.90
43808;DHT22;29438;50.664;10.098;2023-01-04T15:53:39;7.50;93.00
43808;DHT22;29438;50.664;10.098;2023-01-04T15:56:07;7.50;93.00
43808;DHT22;29438;50.664;10.098;2023-01-04T15:58:33;7.50;93.20
43808;DHT22;29438;50.664;10.098;2023-01-04T16:00:58;7.50;93.20
43808;DHT22;29438;50.664;10.098;2023-01-04T16:03:24;7.50;93.20
43808;DHT22;29438;50.664;10.098;2023-01-04T16:05:49;7.50;93.20
43808;DHT22;29438;50.664;10.098;2023-01-04T16:08:15;7.50;93.10
43808;DHT22;29438;50.664;10.098;2023-01-04T16:10:40;7.50;93.10
43808;DHT22;29438;50.664;10.098;2023-01-04T16:13:06;7.50;93.00
43808;DHT22;29438;50.664;10.098;2023-01-04T16:15:32;7.50;93.00
43808;DHT22;29438;50.664;10.098;2023-01-04T16:17:57;7.50;93.00
43808;DHT22;29438;50.664;10.098;2023-01-04T16:20:23;7.60;93.00
43808;DHT22;29438;50.664;10.098;2023-01-04T16:22:48;7.50;92.90
43808;DHT22;29438;50.664;10.098;2023-01-04T16:25:14;7.60;92.70
43808;DHT22;29438;50.664;10.098;2023-01-04T16:27:40;7.60;92.60
43808;DHT22;29438;50.664;10.098;2023-01-04T16:30:09;7.60;92.60
43808;DHT22;29438;50.664;10.098;2023-01-04T16:32:36;7.60;92.50
43808;DHT22;29438;50.664;10.098;2023-01-04T16:35:04;7.70;92.70
43808;DHT22;29438;50.664;10.098;2023-01-04T16:37:30;7.70;92.60
43808;DHT22;29438;50.664;10.098;2023-01-04T16:39:55;7.70;92.60
43808;DHT22;29438;50.664;10.098;2023-01-04T16:42:21;7.70;92.60
43808;DHT22;29438;50.664;10.098;2023-01-04T16:44:46;7.70;92.70
43808;DHT22;29438;50.664;10.098;2023-01-04T16:47:12;7.70;92.80
43808;DHT22;29438;50.664;10.098;2023-01-04T16:49:37;7.70;92.90
43808;DHT22;29438;50.664;10.098;2023-01-04T16:52:03;7.70;92.80
43808;DHT22;29438;50.664;10.098;2023-01-04T16:54:31;7.70;92.90
43808;DHT22;29438;50.664;10.098;2023-01-04T16:56:56;7.70;92.90
43808;DHT22;29438;50.664;10.098;2023-01-04T16:59:23;7.70;93.00
43808;DHT22;29438;50.664;10.098;2023-01-04T17:01:49;7.80;93.00
43808;DHT22;29438;50.664;10.098;2023-01-04T17:04:16;7.70;93.00
43808;DHT22;29438;50.664;10.098;2023-01-04T17:06:44;7.70;93.20
43808;DHT22;29438;50.664;10.098;2023-01-04T17:09:17;7.70;93.30
43808;DHT22;29438;50.664;10.098;2023-01-04T17:11:45;7.70;93.30
43808;DHT22;29438;50.664;10.098;2023-01-04T17:14:25;7.70;93.40
43808;DHT22;29438;50.664;10.098;2023-01-04T17:16:52;7.70;93.50
43808;DHT22;29438;50.664;10.098;2023-01-04T17:19:17;7.70;93.50
43808;DHT22;29438;50.664;10.098;2023-01-04T17:21:43;7.70;93.50
43808;DHT22;29438;50.664;10.098;2023-01-04T17:24:09;7.70;93.50
43808;DHT22;29438;50.664;10.098;2023-01-04T17:26:35;7.70;93.60